Terminal Aerodrome Forecast
Issued by NWS

Home | Current Version | Previous Version | Text Only | Print | Product List | Glossary On
Versions: 1 2 3 4 5 6 7 8 9 10 11 12 13 14 15 16 17 18
000
FTUS45 KFGZ 180500 RRA
TAFPRC
TAF
KPRC 180541Z 1806/1906 19004KT P6SM SCT020 OVC045
     FM181000 VRB04KT 3SM BR VCSH BKN020 OVC025
      TEMPO 1810/1814 1SM BR OVC018
     FM181400 23005KT P6SM SCT022 BKN045
      TEMPO 1814/1818 -SHRA BKN020
     FM190100 20004KT P6SM SCT045=

USA.gov is the U.S. government's official web portal to all federal, state and local government web resources and services.